createdAt,value
2018-09-17T00:01:32.189Z,91.62
2018-09-17T00:06:35.760Z,94.37
2018-09-17T00:11:39.359Z,93.90
2018-09-17T00:16:42.904Z,92.63
2018-09-17T00:21:46.468Z,92.67
2018-09-17T00:26:50.110Z,93.65
2018-09-17T00:31:56.205Z,93.76
2018-09-17T00:36:59.905Z,97.55
2018-09-17T00:42:03.752Z,99.02
2018-09-17T00:47:07.347Z,96.63
2018-09-17T00:52:10.969Z,96.24
2018-09-17T00:57:14.599Z,95.92
2018-09-17T01:02:18.114Z,95.54
2018-09-17T01:07:21.629Z,95.80
2018-09-17T01:12:25.154Z,98.88
2018-09-17T01:17:28.698Z,97.24
2018-09-17T01:22:32.230Z,97.63
2018-09-17T01:27:35.805Z,96.61
2018-09-17T01:32:39.341Z,98.62
2018-09-17T01:37:42.841Z,97.19
2018-09-17T01:42:46.495Z,98.27
2018-09-17T01:47:50.107Z,99.50
2018-09-17T01:52:53.708Z,100.00
2018-09-17T01:57:57.393Z,100.00
2018-09-17T02:03:01.001Z,100.00
2018-09-17T02:08:04.810Z,100.00
2018-09-17T02:13:08.581Z,100.00
2018-09-17T02:18:12.187Z,100.00
2018-09-17T02:23:15.720Z,100.00
2018-09-17T02:28:19.252Z,100.00
2018-09-17T02:33:22.813Z,100.00
2018-09-17T02:38:26.457Z,100.00
2018-09-17T02:43:30.000Z,100.00
2018-09-17T02:48:33.577Z,100.00
2018-09-17T02:53:37.191Z,100.00
2018-09-17T02:58:40.713Z,100.00
2018-09-17T03:03:44.328Z,100.00
2018-09-17T03:08:48.011Z,100.00
2018-09-17T03:14:02.131Z,100.00
2018-09-17T03:19:05.747Z,100.00
2018-09-17T03:24:09.358Z,100.00
2018-09-17T03:29:13.007Z,100.00
2018-09-17T03:34:16.521Z,100.00
2018-09-17T03:39:20.084Z,100.00
2018-09-17T03:44:23.927Z,100.00
2018-09-17T03:49:27.498Z,100.00
2018-09-17T03:54:31.097Z,100.00
2018-09-17T03:59:34.635Z,100.00
2018-09-17T04:04:38.505Z,100.00
2018-09-17T04:09:44.217Z,100.00
2018-09-17T04:14:47.963Z,100.00
2018-09-17T04:19:59.435Z,100.00
2018-09-17T04:25:03.036Z,100.00
2018-09-17T04:30:07.002Z,100.00
2018-09-17T04:35:10.581Z,100.00
2018-09-17T04:40:14.226Z,100.00
2018-09-17T04:45:17.773Z,100.00
2018-09-17T04:50:21.386Z,100.00
2018-09-17T04:55:24.911Z,100.00
2018-09-17T05:00:35.695Z,100.00
2018-09-17T05:05:39.289Z,100.00
2018-09-17T05:10:42.816Z,100.00
2018-09-17T05:15:46.529Z,100.00
2018-09-17T05:20:50.058Z,100.00
2018-09-17T05:25:53.614Z,100.00
2018-09-17T05:30:57.241Z,100.00
2018-09-17T05:36:00.834Z,100.00
2018-09-17T05:41:04.842Z,100.00
2018-09-17T05:46:08.461Z,100.00
2018-09-17T05:51:12.730Z,100.00
2018-09-17T05:56:16.557Z,100.00
2018-09-17T06:01:20.681Z,100.00
2018-09-17T06:06:24.451Z,100.00
2018-09-17T06:11:28.272Z,100.00
2018-09-17T06:16:32.110Z,100.00
2018-09-17T06:21:35.889Z,100.00
2018-09-17T06:26:39.563Z,99.46
2018-09-17T06:31:46.970Z,98.20
2018-09-17T06:36:50.646Z,97.24
2018-09-17T06:41:54.488Z,95.71
2018-09-17T06:46:58.190Z,94.03
2018-09-17T06:52:01.789Z,91.84
2018-09-17T06:57:05.366Z,89.06
2018-09-17T07:02:09.089Z,89.04
2018-09-17T07:07:12.802Z,88.41
2018-09-17T07:12:16.433Z,87.65
2018-09-17T07:17:20.020Z,87.21
2018-09-17T07:22:23.706Z,84.87
2018-09-17T07:27:27.301Z,82.59
2018-09-17T07:32:30.977Z,80.03
2018-09-17T07:37:34.626Z,77.06
2018-09-17T07:42:38.320Z,76.17
2018-09-17T07:47:43.564Z,73.84
2018-09-17T07:52:47.298Z,69.98
2018-09-17T07:57:55.807Z,67.99
2018-09-17T08:03:00.184Z,67.97
2018-09-17T08:08:03.848Z,62.13
2018-09-17T08:13:07.541Z,60.45
2018-09-17T08:18:11.137Z,59.69
2018-09-17T08:23:15.029Z,59.79
2018-09-17T08:28:18.709Z,60.53
2018-09-17T08:33:22.384Z,59.27
2018-09-17T08:38:26.270Z,57.15
2018-09-17T08:43:30.099Z,56.35
2018-09-17T08:48:33.812Z,54.00
2018-09-17T08:53:37.693Z,54.62
2018-09-17T08:58:46.582Z,55.28
2018-09-17T09:03:57.743Z,55.26
2018-09-17T09:09:01.920Z,54.64
2018-09-17T09:14:10.557Z,54.20
2018-09-17T09:19:14.250Z,53.61
2018-09-17T09:24:18.546Z,54.05
2018-09-17T09:29:22.693Z,53.65
2018-09-17T09:34:26.439Z,52.26
2018-09-17T09:39:33.537Z,51.47
2018-09-17T09:44:43.163Z,50.97
2018-09-17T09:49:50.318Z,48.91
2018-09-17T09:55:03.201Z,48.48
2018-09-17T10:00:13.714Z,49.42
2018-09-17T10:05:17.623Z,49.47
2018-09-17T10:10:26.783Z,49.66
2018-09-17T10:15:35.537Z,47.67
2018-09-17T10:20:39.093Z,46.25
2018-09-17T10:25:42.697Z,44.48
2018-09-17T10:30:46.512Z,44.02
2018-09-17T10:35:50.051Z,42.49
2018-09-17T10:40:53.607Z,42.63
2018-09-17T10:45:57.172Z,41.02
2018-09-17T10:51:00.767Z,42.59
2018-09-17T10:56:04.372Z,41.39
2018-09-17T11:01:07.973Z,40.47
2018-09-17T11:06:11.796Z,42.31
2018-09-17T11:11:17.438Z,41.39
2018-09-17T11:16:21.040Z,40.50
2018-09-17T11:21:24.652Z,39.94
2018-09-17T11:26:28.427Z,40.73
2018-09-17T11:31:32.481Z,39.51
2018-09-17T11:36:42.407Z,39.81
2018-09-17T11:41:51.861Z,40.51
2018-09-17T11:46:55.409Z,39.83
2018-09-17T11:52:02.733Z,38.55
2018-09-17T11:57:06.399Z,39.08
2018-09-17T12:02:15.530Z,39.29
2018-09-17T12:07:24.333Z,38.91
2018-09-17T12:12:27.989Z,38.10
2018-09-17T12:17:31.784Z,38.32
2018-09-17T12:22:35.519Z,37.60
2018-09-17T12:27:41.318Z,37.18
2018-09-17T12:32:52.409Z,36.98
2018-09-17T12:37:56.050Z,37.29
2018-09-17T12:42:59.660Z,36.33
2018-09-17T12:48:03.340Z,36.16
2018-09-17T12:53:06.924Z,35.65
2018-09-17T12:58:10.453Z,35.34
2018-09-17T13:03:14.114Z,34.31
2018-09-17T13:08:17.963Z,34.62
2018-09-17T13:13:21.625Z,33.51
2018-09-17T13:18:26.317Z,34.04
2018-09-17T13:23:29.974Z,34.08
2018-09-17T13:28:33.515Z,33.56
2018-09-17T13:33:37.034Z,33.31
2018-09-17T13:38:40.576Z,33.50
2018-09-17T13:43:44.097Z,32.79
2018-09-17T13:48:47.803Z,33.68
2018-09-17T13:53:51.443Z,32.86
2018-09-17T13:58:54.965Z,32.29
2018-09-17T14:03:58.557Z,32.83
2018-09-17T14:09:02.215Z,32.69
2018-09-17T14:14:05.964Z,33.33
2018-09-17T14:19:09.553Z,32.20
2018-09-17T14:24:13.410Z,31.86
2018-09-17T14:29:16.988Z,32.43
2018-09-17T14:34:20.589Z,32.31
2018-09-17T14:39:24.300Z,32.07
2018-09-17T14:44:27.930Z,31.78
2018-09-17T14:49:39.185Z,31.36
2018-09-17T14:54:42.891Z,31.31
2018-09-17T14:59:46.426Z,31.53
2018-09-17T15:04:50.088Z,31.77
2018-09-17T15:09:53.766Z,32.00
2018-09-17T15:14:57.413Z,32.71
2018-09-17T15:20:00.989Z,31.65
2018-09-17T15:25:04.918Z,32.14
2018-09-17T15:30:13.367Z,31.70
2018-09-17T15:35:17.155Z,31.25
2018-09-17T15:40:20.973Z,31.52
2018-09-17T15:45:24.922Z,33.10
2018-09-17T15:50:28.534Z,32.94
2018-09-17T15:55:32.149Z,33.82
2018-09-17T16:00:35.792Z,33.62
2018-09-17T16:05:39.373Z,35.16
2018-09-17T16:10:43.000Z,34.72
2018-09-17T16:15:48.021Z,36.36
2018-09-17T16:20:51.659Z,37.56
2018-09-17T16:25:55.244Z,38.05
2018-09-17T16:30:58.781Z,38.11
2018-09-17T16:36:02.362Z,39.50
2018-09-17T16:41:06.301Z,39.46
2018-09-17T16:46:09.883Z,40.48
2018-09-17T16:51:13.557Z,42.03
2018-09-17T16:56:17.106Z,42.75
2018-09-17T17:01:20.766Z,43.66
2018-09-17T17:06:24.623Z,45.91
2018-09-17T17:11:28.236Z,47.03
2018-09-17T17:16:31.785Z,47.08
2018-09-17T17:21:36.273Z,48.08
2018-09-17T17:26:39.831Z,48.47
2018-09-17T17:31:43.454Z,50.79
2018-09-17T17:36:47.793Z,50.91
2018-09-17T17:41:52.406Z,51.90
2018-09-17T17:46:56.905Z,52.67
2018-09-17T17:52:01.616Z,54.31
2018-09-17T17:57:06.327Z,54.50
2018-09-17T18:02:10.037Z,54.78
2018-09-17T18:07:13.823Z,56.26
2018-09-17T18:12:17.394Z,56.00
2018-09-17T18:17:21.365Z,56.44
2018-09-17T18:22:26.216Z,57.33
2018-09-17T18:27:31.013Z,58.02
2018-09-17T18:32:35.883Z,58.78
2018-09-17T18:37:41.463Z,58.70
2018-09-17T18:42:46.146Z,59.29
2018-09-17T18:47:50.007Z,59.44
2018-09-17T18:52:54.027Z,60.75
2018-09-17T18:57:58.552Z,60.28
2018-09-17T19:03:02.243Z,61.07
2018-09-17T19:08:05.944Z,61.81
2018-09-17T19:13:09.734Z,61.94
2018-09-17T19:18:19.328Z,61.45
2018-09-17T19:23:29.189Z,62.66
2018-09-17T19:28:38.164Z,62.77
2018-09-17T19:33:41.815Z,63.41
2018-09-17T19:38:50.767Z,62.44
2018-09-17T19:43:54.458Z,63.46
2018-09-17T19:48:58.056Z,63.96
2018-09-17T19:54:01.762Z,64.58
2018-09-17T19:59:10.747Z,65.29
2018-09-17T20:04:20.451Z,67.02
2018-09-17T20:09:24.742Z,66.63
2018-09-17T20:14:29.428Z,66.27
2018-09-17T20:19:33.270Z,67.50
2018-09-17T20:24:37.666Z,68.34
2018-09-17T20:29:42.268Z,69.22
2018-09-17T20:34:47.073Z,69.61
2018-09-17T20:39:51.715Z,69.87
2018-09-17T20:44:56.258Z,71.00
2018-09-17T20:49:59.965Z,70.77
2018-09-17T20:55:03.588Z,70.93
2018-09-17T21:00:09.356Z,71.83
2018-09-17T21:05:13.655Z,72.57
2018-09-17T21:10:17.846Z,71.97
2018-09-17T21:15:21.608Z,72.32
2018-09-17T21:20:26.749Z,72.59
2018-09-17T21:25:30.473Z,71.23
2018-09-17T21:30:34.137Z,70.08
2018-09-17T21:35:37.739Z,70.14
2018-09-17T21:40:41.628Z,69.62
2018-09-17T21:45:45.292Z,70.05
2018-09-17T21:50:59.330Z,70.39
2018-09-17T21:56:02.985Z,70.17
2018-09-17T22:01:07.074Z,70.40
2018-09-17T22:06:15.004Z,70.91
2018-09-17T22:11:18.955Z,70.30
2018-09-17T22:16:22.716Z,70.24
2018-09-17T22:21:26.299Z,69.51
2018-09-17T22:26:29.920Z,69.95
2018-09-17T22:31:33.515Z,71.28
2018-09-17T22:36:37.092Z,71.07
2018-09-17T22:41:41.127Z,71.22
2018-09-17T22:46:44.653Z,71.90
2018-09-17T22:51:48.274Z,72.20
2018-09-17T22:56:51.794Z,72.75
2018-09-17T23:01:55.398Z,71.83
2018-09-17T23:06:58.918Z,71.75
2018-09-17T23:12:02.795Z,71.70
2018-09-17T23:17:06.431Z,71.80
2018-09-17T23:22:10.002Z,71.17
2018-09-17T23:27:14.004Z,70.67
2018-09-17T23:32:17.887Z,71.08
2018-09-17T23:37:21.661Z,70.35
2018-09-17T23:42:25.204Z,70.11
2018-09-17T23:47:30.237Z,71.11
2018-09-17T23:52:33.935Z,71.55
2018-09-17T23:57:37.508Z,72.33
